Main page
METAR-TAF:

METAR-TAF

Airports :

Namibe Airport

Namibe, Angola

latitude: 15-15-40S, longitude: 12-08-50E, elevation: 64 m

Current weather observation

The report was made 1 hour and 9 minutes ago, at 12:00 UTC
Wind 12 kt from the North/Northwest
Temperature 27°C
Humidity 62%
Pressure 1011 hPa
Visibility 10 km or more
Few clouds at a height of 1600 ft

METAR: FNMO 211200Z 33012KT 9999 FEW016 27/19 Q1011

Time: 14:09 (13:09 UTC)

Forecast

The report was made 2 hours and 9 minutes ago, at 11:00 UTC
Forecast valid from 21 at 12 UTC to 22 at 24 UTC
Wind 7 kt from the West/Northwest
Visibility: 9000 m
Few clouds at a height of 1500 ft
Few clouds at a height of 1800 ft, Cumulonimbus.
Broken clouds at a height of 1800 ft
Becoming
from 21 at 18 UTC to 21 at 20 UTC
Wind 8 kt from the Southwest
Visibility: 8000 m
Few clouds at a height of 1000 ft
Scattered clouds at a height of 2500 ft

TAF: FNMO 211100Z 2112/2224 29007KT 9000 FEW015 FEW018CB BKN018 BECMG 2118/2120 23008KT 8000 FEW010 SCT025

Weather observations and forecasts of more than 4000 airports (METAR and TAF reports).

The available stations are represented by yellow and red dots on the map.

Hover mouse over dot to see the name of the station.

Then click to see weather observations and forecasts.

To change the map : click on the green buttons with a black cross to zoom in, on the green button with a dash to zoom out, or on the green arrows for adjacent maps.


METAR-TAF: